createdAt,value
2023-04-30T00:01:29.001Z,12.94
2023-04-30T00:04:01.484Z,12.88
2023-04-30T00:06:37.246Z,12.81
2023-04-30T00:09:05.280Z,12.84
2023-04-30T00:11:33.786Z,12.96
2023-04-30T00:14:01.832Z,12.66
2023-04-30T00:16:30.933Z,12.84
2023-04-30T00:19:00.800Z,12.75
2023-04-30T00:21:30.300Z,12.65
2023-04-30T00:24:00.398Z,12.92
2023-04-30T00:26:29.196Z,12.82
2023-04-30T00:28:57.806Z,12.60
2023-04-30T00:31:28.118Z,12.87
2023-04-30T00:33:59.456Z,12.60
2023-04-30T00:36:29.640Z,12.54
2023-04-30T00:38:58.040Z,12.52
2023-04-30T00:41:28.133Z,12.40
2023-04-30T00:43:57.397Z,12.28
2023-04-30T00:46:26.397Z,11.98
2023-04-30T00:49:00.452Z,11.83
2023-04-30T00:51:33.318Z,11.98
2023-04-30T00:54:03.979Z,11.88
2023-04-30T00:56:32.711Z,11.76
2023-04-30T00:59:01.507Z,11.64
2023-04-30T01:01:29.913Z,11.53
2023-04-30T01:03:58.509Z,11.42
2023-04-30T01:06:27.838Z,11.28
2023-04-30T01:08:57.865Z,11.31
2023-04-30T01:11:36.473Z,11.23
2023-04-30T01:14:09.762Z,11.26
2023-04-30T01:16:48.972Z,11.19
2023-04-30T01:19:37.525Z,11.27
2023-04-30T01:22:11.014Z,11.12
2023-04-30T01:25:15.848Z,10.94
2023-04-30T01:28:14.687Z,11.01
2023-04-30T01:30:45.833Z,10.84
2023-04-30T01:33:14.058Z,10.90
2023-04-30T01:36:08.818Z,10.94
2023-04-30T01:38:53.787Z,10.83
2023-04-30T01:41:31.405Z,10.99
2023-04-30T01:44:18.587Z,11.06
2023-04-30T01:46:54.542Z,11.08
2023-04-30T01:49:33.830Z,11.15
2023-04-30T01:52:11.799Z,11.09
2023-04-30T01:54:48.068Z,11.05
2023-04-30T01:57:22.343Z,11.02
2023-04-30T01:59:53.199Z,10.94
2023-04-30T02:02:21.268Z,10.87
2023-04-30T02:04:50.312Z,10.68
2023-04-30T02:07:38.585Z,10.79
2023-04-30T02:10:08.781Z,10.68
2023-04-30T02:12:37.243Z,10.70
2023-04-30T02:15:11.272Z,10.71
2023-04-30T02:17:41.877Z,10.66
2023-04-30T02:20:10.963Z,10.69
2023-04-30T02:22:40.249Z,10.57
2023-04-30T02:25:12.875Z,10.64
2023-04-30T02:27:41.318Z,10.74
2023-04-30T02:30:14.147Z,10.76
2023-04-30T02:32:42.283Z,10.80
2023-04-30T02:35:11.905Z,10.76
2023-04-30T02:37:39.903Z,10.89
2023-04-30T02:40:11.361Z,10.85
2023-04-30T02:42:39.883Z,10.85
2023-04-30T02:45:14.990Z,10.79
2023-04-30T02:47:44.662Z,10.85
2023-04-30T02:50:13.637Z,10.91
2023-04-30T02:52:44.382Z,10.89
2023-04-30T02:55:13.602Z,10.78
2023-04-30T02:57:43.273Z,10.75
2023-04-30T03:00:15.588Z,10.63
2023-04-30T03:02:46.649Z,10.77
2023-04-30T03:05:16.195Z,10.83
2023-04-30T03:07:45.137Z,10.67
2023-04-30T03:10:13.757Z,10.54
2023-04-30T03:12:42.803Z,10.54
2023-04-30T03:15:12.751Z,10.69
2023-04-30T03:17:42.577Z,10.63
2023-04-30T03:20:12.720Z,10.52
2023-04-30T03:22:41.602Z,10.43
2023-04-30T03:25:10.867Z,10.37
2023-04-30T03:27:40.690Z,10.53
2023-04-30T03:30:13.474Z,10.48
2023-04-30T03:32:41.585Z,10.53
2023-04-30T03:35:16.908Z,10.70
2023-04-30T03:37:44.963Z,10.49
2023-04-30T03:40:15.044Z,10.54
2023-04-30T03:42:42.900Z,10.68
2023-04-30T03:45:18.383Z,10.77
2023-04-30T03:47:46.784Z,10.55
2023-04-30T03:50:15.479Z,10.61
2023-04-30T03:52:43.770Z,10.65
2023-04-30T03:55:12.673Z,10.66
2023-04-30T03:57:41.836Z,10.52
2023-04-30T04:00:12.935Z,10.31
2023-04-30T04:02:43.929Z,10.43
2023-04-30T04:05:16.814Z,10.49
2023-04-30T04:07:47.577Z,10.34
2023-04-30T04:10:18.339Z,10.29
2023-04-30T04:12:54.175Z,10.65
2023-04-30T04:15:23.178Z,10.41
2023-04-30T04:17:55.038Z,10.51
2023-04-30T04:20:23.625Z,10.45
2023-04-30T04:22:54.643Z,10.37
2023-04-30T04:25:27.428Z,10.35
2023-04-30T04:27:56.899Z,10.27
2023-04-30T04:30:28.359Z,10.28
2023-04-30T04:32:58.577Z,10.21
2023-04-30T04:35:27.708Z,10.13
2023-04-30T04:37:56.354Z,10.15
2023-04-30T04:40:32.306Z,10.09
2023-04-30T04:43:03.836Z,9.77
2023-04-30T04:45:34.087Z,9.74
2023-04-30T04:48:03.427Z,9.75
2023-04-30T04:50:39.014Z,9.89
2023-04-30T04:53:11.532Z,9.67
2023-04-30T04:55:40.142Z,9.85
2023-04-30T04:58:08.926Z,9.94
2023-04-30T05:00:37.249Z,9.99
2023-04-30T05:03:07.969Z,9.95
2023-04-30T05:05:37.921Z,9.99
2023-04-30T05:08:06.772Z,10.00
2023-04-30T05:10:34.887Z,10.16
2023-04-30T05:13:06.802Z,10.09
2023-04-30T05:15:36.124Z,10.19
2023-04-30T05:18:05.329Z,10.20
2023-04-30T05:20:36.057Z,10.24
2023-04-30T05:23:05.404Z,10.36
2023-04-30T05:25:33.331Z,10.36
2023-04-30T05:28:02.462Z,10.28
2023-04-30T05:30:34.208Z,10.38
2023-04-30T05:33:03.576Z,10.46
2023-04-30T05:35:35.872Z,10.40
2023-04-30T05:38:10.668Z,10.45
2023-04-30T05:40:40.914Z,10.40
2023-04-30T05:43:09.942Z,10.57
2023-04-30T05:45:41.067Z,10.75
2023-04-30T05:48:10.026Z,10.79
2023-04-30T05:50:39.023Z,10.97
2023-04-30T05:53:10.512Z,11.01
2023-04-30T05:55:45.865Z,11.10
2023-04-30T05:58:14.085Z,11.20
2023-04-30T06:00:44.493Z,11.44
2023-04-30T06:03:14.346Z,11.58
2023-04-30T06:05:43.066Z,11.46
2023-04-30T06:08:12.846Z,11.42
2023-04-30T06:10:42.037Z,11.54
2023-04-30T06:13:14.900Z,11.76
2023-04-30T06:15:46.562Z,11.85
2023-04-30T06:18:17.137Z,11.82
2023-04-30T06:20:46.127Z,12.01
2023-04-30T06:23:19.394Z,11.94
2023-04-30T06:25:51.911Z,12.00
2023-04-30T06:28:21.782Z,12.15
2023-04-30T06:30:50.243Z,12.13
2023-04-30T06:33:21.290Z,12.41
2023-04-30T06:35:54.874Z,12.42
2023-04-30T06:38:26.163Z,12.45
2023-04-30T06:40:56.461Z,12.35
2023-04-30T06:43:24.997Z,12.21
2023-04-30T06:45:54.702Z,12.46
2023-04-30T06:48:22.970Z,12.35
2023-04-30T06:50:50.939Z,12.58
2023-04-30T06:53:18.968Z,12.80
2023-04-30T06:55:56.606Z,12.73
2023-04-30T06:58:24.529Z,13.16
2023-04-30T07:01:02.113Z,13.18
2023-04-30T07:03:31.583Z,12.88
2023-04-30T07:06:00.679Z,13.10
2023-04-30T07:08:30.242Z,13.29
2023-04-30T07:10:59.763Z,13.34
2023-04-30T07:13:28.010Z,13.27
2023-04-30T07:15:57.460Z,13.14
2023-04-30T07:18:27.146Z,13.26
2023-04-30T07:20:55.357Z,13.12
2023-04-30T07:23:23.463Z,13.48
2023-04-30T07:25:51.395Z,13.28
2023-04-30T07:28:21.662Z,13.25
2023-04-30T07:30:49.493Z,13.68
2023-04-30T07:33:17.599Z,13.62
2023-04-30T07:35:46.955Z,13.67
2023-04-30T07:38:18.956Z,13.76
2023-04-30T07:40:47.065Z,13.42
2023-04-30T07:43:18.403Z,13.93
2023-04-30T07:45:50.548Z,14.15
2023-04-30T07:48:18.996Z,14.17
2023-04-30T07:50:50.558Z,13.84
2023-04-30T07:53:19.462Z,14.01
2023-04-30T07:55:51.746Z,14.11
2023-04-30T07:58:20.791Z,14.19
2023-04-30T08:00:53.643Z,14.26
2023-04-30T08:03:21.896Z,14.38
2023-04-30T08:05:52.642Z,14.42
2023-04-30T08:08:21.878Z,14.47
2023-04-30T08:10:49.666Z,14.32
2023-04-30T08:13:18.742Z,14.48
2023-04-30T08:15:47.126Z,14.39
2023-04-30T08:18:16.689Z,14.52
2023-04-30T08:20:45.782Z,14.67
2023-04-30T08:23:16.838Z,14.71
2023-04-30T08:25:46.149Z,14.75
2023-04-30T08:28:16.393Z,14.78
2023-04-30T08:30:44.779Z,14.85
2023-04-30T08:33:14.346Z,14.87
2023-04-30T08:35:43.885Z,14.97
2023-04-30T08:38:15.681Z,15.31
2023-04-30T08:40:52.119Z,15.47
2023-04-30T08:43:20.645Z,15.31
2023-04-30T08:45:52.492Z,15.24
2023-04-30T08:48:23.283Z,15.62
2023-04-30T08:50:57.404Z,15.58
2023-04-30T08:53:28.228Z,15.43
2023-04-30T08:55:57.471Z,15.29
2023-04-30T08:58:26.453Z,15.47
2023-04-30T09:00:57.232Z,15.57
2023-04-30T09:03:28.712Z,15.69
2023-04-30T09:06:00.674Z,15.91
2023-04-30T09:08:45.598Z,16.12
2023-04-30T09:11:25.643Z,16.02
2023-04-30T09:13:58.099Z,15.71
2023-04-30T09:16:31.151Z,15.98
2023-04-30T09:19:00.548Z,16.12
2023-04-30T09:21:37.789Z,16.38
2023-04-30T09:24:07.136Z,16.22
2023-04-30T09:26:36.252Z,16.18
2023-04-30T09:29:10.227Z,16.03
2023-04-30T09:31:42.003Z,16.25
2023-04-30T09:34:10.794Z,16.67
2023-04-30T09:36:55.318Z,16.66
2023-04-30T09:39:24.372Z,16.69
2023-04-30T09:41:53.679Z,16.83
2023-04-30T09:44:30.752Z,16.95
2023-04-30T09:46:59.678Z,16.60
2023-04-30T09:49:31.928Z,16.89
2023-04-30T09:52:04.854Z,16.87
2023-04-30T09:54:33.856Z,16.78
2023-04-30T09:57:07.344Z,16.69
2023-04-30T09:59:38.052Z,17.02
2023-04-30T10:02:11.535Z,16.81
2023-04-30T10:04:43.159Z,16.88
2023-04-30T10:07:18.766Z,17.12
2023-04-30T10:09:53.037Z,17.20
2023-04-30T10:12:33.717Z,17.23
2023-04-30T10:15:11.050Z,17.40
2023-04-30T10:17:44.365Z,17.58
2023-04-30T10:20:15.681Z,17.25
2023-04-30T10:22:47.445Z,17.60
2023-04-30T10:25:16.338Z,17.67
2023-04-30T10:27:46.289Z,17.88
2023-04-30T10:30:16.119Z,18.17
2023-04-30T10:32:57.252Z,18.09
2023-04-30T10:35:31.768Z,17.84
2023-04-30T10:38:13.359Z,18.05
2023-04-30T10:40:41.955Z,18.14
2023-04-30T10:43:13.260Z,18.15
2023-04-30T10:45:44.782Z,18.04
2023-04-30T10:48:16.109Z,18.12
2023-04-30T10:50:47.190Z,17.80
2023-04-30T10:53:22.324Z,17.92
2023-04-30T10:55:55.712Z,18.00
2023-04-30T10:58:29.968Z,18.13
2023-04-30T11:01:06.471Z,18.27
2023-04-30T11:03:38.148Z,18.28
2023-04-30T11:06:13.086Z,18.33
2023-04-30T11:08:47.588Z,18.32
2023-04-30T11:11:21.980Z,18.50
2023-04-30T11:14:02.096Z,18.70
2023-04-30T11:16:32.335Z,18.53
2023-04-30T11:19:18.489Z,19.11
2023-04-30T11:22:18.035Z,18.91
2023-04-30T11:25:09.486Z,18.90
2023-04-30T11:27:40.222Z,19.12
2023-04-30T11:30:21.477Z,19.11
2023-04-30T11:32:56.250Z,19.24
2023-04-30T11:35:24.407Z,18.96
2023-04-30T11:37:57.001Z,19.03
2023-04-30T11:40:29.524Z,19.40
2023-04-30T11:42:57.440Z,19.46
2023-04-30T11:45:29.496Z,19.77
2023-04-30T11:48:02.885Z,19.71
2023-04-30T11:50:35.759Z,19.65
2023-04-30T11:53:06.181Z,19.56
2023-04-30T11:55:38.708Z,19.76
2023-04-30T11:58:14.666Z,19.89
2023-04-30T12:00:43.478Z,19.47
2023-04-30T12:03:17.472Z,19.80
2023-04-30T12:05:47.380Z,19.68
2023-04-30T12:08:17.705Z,20.18
2023-04-30T12:10:47.620Z,19.82
2023-04-30T12:13:18.230Z,19.59
2023-04-30T12:15:59.829Z,20.11
2023-04-30T12:18:28.210Z,19.65
2023-04-30T12:20:57.905Z,19.98
2023-04-30T12:23:28.382Z,20.60
2023-04-30T12:26:01.143Z,20.09
2023-04-30T12:28:30.015Z,20.19
2023-04-30T12:30:58.022Z,20.46
2023-04-30T12:33:26.465Z,19.82
2023-04-30T12:35:57.353Z,19.48
2023-04-30T12:38:26.465Z,19.75
2023-04-30T12:40:55.661Z,20.21
2023-04-30T12:43:25.426Z,20.04
2023-04-30T12:46:05.132Z,20.38
2023-04-30T12:48:48.233Z,20.51
2023-04-30T12:51:21.481Z,20.39
2023-04-30T12:53:51.864Z,20.39
2023-04-30T12:56:23.298Z,20.43
2023-04-30T12:58:53.809Z,20.42
2023-04-30T13:01:26.082Z,19.72
2023-04-30T13:03:54.834Z,19.45
2023-04-30T13:06:27.511Z,19.74
2023-04-30T13:09:01.655Z,19.94
2023-04-30T13:11:31.115Z,20.18
2023-04-30T13:14:00.390Z,20.23
2023-04-30T13:16:29.108Z,20.72
2023-04-30T13:18:59.324Z,20.75
2023-04-30T13:21:28.734Z,21.52
2023-04-30T13:23:59.739Z,21.55
2023-04-30T13:26:29.718Z,21.48
2023-04-30T13:29:02.002Z,21.42
2023-04-30T13:31:33.000Z,21.00
2023-04-30T13:34:06.925Z,20.58
2023-04-30T13:36:35.920Z,20.98
2023-04-30T13:39:06.789Z,20.97
2023-04-30T13:41:37.740Z,20.74
2023-04-30T13:44:11.270Z,21.19
2023-04-30T13:46:40.033Z,21.65
2023-04-30T13:49:10.074Z,22.61
2023-04-30T13:51:38.635Z,22.54
2023-04-30T13:54:07.031Z,23.62
2023-04-30T13:56:35.321Z,23.41
2023-04-30T13:59:13.776Z,24.09
2023-04-30T14:01:44.410Z,24.72
2023-04-30T14:04:12.913Z,23.28
2023-04-30T14:06:41.909Z,22.79
2023-04-30T14:09:10.084Z,22.18
2023-04-30T14:11:40.382Z,22.38
2023-04-30T14:14:15.077Z,22.96
2023-04-30T14:16:45.181Z,22.60
2023-04-30T14:19:13.882Z,22.77
2023-04-30T14:21:42.379Z,22.28
2023-04-30T14:24:12.604Z,22.47
2023-04-30T14:26:42.033Z,22.13
2023-04-30T14:29:11.340Z,21.71
2023-04-30T14:31:42.081Z,21.53
2023-04-30T14:34:17.708Z,21.55
2023-04-30T14:36:45.500Z,22.65
2023-04-30T14:39:17.881Z,24.70
2023-04-30T14:41:48.368Z,26.38
2023-04-30T14:44:19.927Z,28.66
2023-04-30T14:46:50.012Z,27.95
2023-04-30T14:49:20.417Z,24.66
2023-04-30T14:51:50.592Z,23.99
2023-04-30T14:54:18.672Z,22.87
2023-04-30T14:56:47.309Z,22.36
2023-04-30T14:59:15.537Z,21.55
2023-04-30T15:01:43.823Z,21.72
2023-04-30T15:04:12.694Z,20.76
2023-04-30T15:06:42.394Z,20.66
2023-04-30T15:09:11.563Z,20.26
2023-04-30T15:11:40.687Z,20.40
2023-04-30T15:14:09.333Z,20.50
2023-04-30T15:16:37.562Z,20.58
2023-04-30T15:19:09.085Z,20.39
2023-04-30T15:21:53.020Z,20.35
2023-04-30T15:24:22.450Z,20.67
2023-04-30T15:26:54.123Z,20.38
2023-04-30T15:29:26.945Z,20.82
2023-04-30T15:32:00.152Z,21.22
2023-04-30T15:34:29.174Z,21.18
2023-04-30T15:36:59.079Z,21.46
2023-04-30T15:39:28.502Z,21.83
2023-04-30T15:41:57.786Z,22.00
2023-04-30T15:44:27.039Z,22.26
2023-04-30T15:46:57.101Z,22.26
2023-04-30T15:49:29.034Z,22.14
2023-04-30T15:52:00.222Z,21.99
2023-04-30T15:54:32.509Z,21.68
2023-04-30T15:57:03.220Z,21.16
2023-04-30T15:59:31.548Z,21.38
2023-04-30T16:02:02.722Z,21.49
2023-04-30T16:04:31.135Z,21.28
2023-04-30T16:07:03.638Z,20.89
2023-04-30T16:09:34.955Z,20.86
2023-04-30T16:12:06.324Z,21.03
2023-04-30T16:14:35.741Z,21.15
2023-04-30T16:17:04.096Z,21.01
2023-04-30T16:19:32.300Z,21.03
2023-04-30T16:22:01.275Z,20.83
2023-04-30T16:24:30.117Z,21.01
2023-04-30T16:27:00.295Z,21.02
2023-04-30T16:29:30.809Z,20.70
2023-04-30T16:31:59.280Z,20.79
2023-04-30T16:34:30.647Z,20.45
2023-04-30T16:37:01.092Z,20.72
2023-04-30T16:39:29.706Z,21.01
2023-04-30T16:42:00.260Z,20.81
2023-04-30T16:44:28.986Z,21.21
2023-04-30T16:46:59.834Z,21.21
2023-04-30T16:49:31.351Z,20.55
2023-04-30T16:51:59.544Z,20.79
2023-04-30T16:54:30.599Z,21.44
2023-04-30T16:57:04.475Z,21.12
2023-04-30T16:59:32.646Z,20.67
2023-04-30T17:02:03.817Z,20.21
2023-04-30T17:04:33.810Z,20.48
2023-04-30T17:07:02.838Z,20.16
2023-04-30T17:09:31.556Z,20.22
2023-04-30T17:12:05.465Z,20.02
2023-04-30T17:14:33.474Z,19.83
2023-04-30T17:17:02.889Z,19.51
2023-04-30T17:19:34.033Z,19.47
2023-04-30T17:22:03.483Z,19.34
2023-04-30T17:24:34.399Z,19.80
2023-04-30T17:27:06.146Z,19.68
2023-04-30T17:29:35.475Z,19.63
2023-04-30T17:32:06.881Z,19.78
2023-04-30T17:34:38.785Z,19.89
2023-04-30T17:37:09.002Z,19.91
2023-04-30T17:39:42.284Z,19.53
2023-04-30T17:42:12.481Z,19.34
2023-04-30T17:44:42.291Z,19.80
2023-04-30T17:47:10.759Z,19.27
2023-04-30T17:49:39.423Z,19.26
2023-04-30T17:52:07.277Z,19.23
2023-04-30T17:54:40.051Z,19.24
2023-04-30T17:57:08.486Z,19.14
2023-04-30T17:59:36.676Z,19.26
2023-04-30T18:02:09.154Z,18.92
2023-04-30T18:04:40.454Z,18.78
2023-04-30T18:07:11.500Z,18.59
2023-04-30T18:09:39.572Z,18.69
2023-04-30T18:12:07.962Z,18.36
2023-04-30T18:14:38.342Z,18.29
2023-04-30T18:17:08.609Z,18.24
2023-04-30T18:19:38.647Z,18.01
2023-04-30T18:22:09.633Z,17.92
2023-04-30T18:24:38.170Z,17.92
2023-04-30T18:27:06.901Z,17.77
2023-04-30T18:29:36.834Z,17.65
2023-04-30T18:32:10.079Z,17.48
2023-04-30T18:34:43.712Z,17.54
2023-04-30T18:37:11.905Z,17.40
2023-04-30T18:39:41.518Z,17.33
2023-04-30T18:42:10.302Z,17.02
2023-04-30T18:44:38.985Z,17.09
2023-04-30T18:47:09.193Z,16.91
2023-04-30T18:49:38.376Z,16.78
2023-04-30T18:52:06.451Z,16.79
2023-04-30T18:54:36.192Z,16.67
2023-04-30T18:57:06.317Z,16.63
2023-04-30T18:59:39.043Z,16.55
2023-04-30T19:02:12.561Z,16.48
2023-04-30T19:04:40.707Z,16.45
2023-04-30T19:07:09.019Z,16.38
2023-04-30T19:09:37.635Z,16.18
2023-04-30T19:12:06.506Z,16.37
2023-04-30T19:14:35.794Z,16.22
2023-04-30T19:17:05.695Z,16.11
2023-04-30T19:19:38.615Z,16.06
2023-04-30T19:22:08.614Z,16.03
2023-04-30T19:24:44.883Z,15.98
2023-04-30T19:27:14.023Z,15.94
2023-04-30T19:29:42.647Z,16.01
2023-04-30T19:32:18.115Z,15.94
2023-04-30T19:34:52.362Z,15.91
2023-04-30T19:37:21.451Z,15.86
2023-04-30T19:39:50.000Z,15.68
2023-04-30T19:42:21.452Z,15.55
2023-04-30T19:44:52.989Z,15.51
2023-04-30T19:47:21.979Z,15.61
2023-04-30T19:49:53.813Z,15.65
2023-04-30T19:52:22.122Z,15.59
2023-04-30T19:54:50.506Z,15.50
2023-04-30T19:57:18.802Z,15.49
2023-04-30T19:59:47.862Z,15.44
2023-04-30T20:02:16.550Z,15.38
2023-04-30T20:04:45.452Z,15.31
2023-04-30T20:07:19.267Z,15.29
2023-04-30T20:09:48.446Z,15.23
2023-04-30T20:12:16.902Z,15.14
2023-04-30T20:14:47.452Z,15.00
2023-04-30T20:17:16.892Z,15.02
2023-04-30T20:19:51.557Z,15.00
2023-04-30T20:22:20.890Z,14.96
2023-04-30T20:24:55.480Z,14.78
2023-04-30T20:27:25.781Z,14.76
2023-04-30T20:29:54.202Z,14.76
2023-04-30T20:32:28.609Z,14.68
2023-04-30T20:35:00.701Z,14.64
2023-04-30T20:37:30.808Z,14.55
2023-04-30T20:40:01.932Z,14.61
2023-04-30T20:42:31.864Z,14.73
2023-04-30T20:45:02.369Z,14.58
2023-04-30T20:47:31.700Z,14.59
2023-04-30T20:50:02.026Z,14.60
2023-04-30T20:52:31.526Z,14.48
2023-04-30T20:55:00.125Z,14.34
2023-04-30T20:57:30.345Z,14.12
2023-04-30T20:59:59.024Z,14.11
2023-04-30T21:02:31.171Z,14.06
2023-04-30T21:05:05.577Z,14.05
2023-04-30T21:07:35.566Z,14.03
2023-04-30T21:10:08.663Z,14.07
2023-04-30T21:12:38.281Z,13.77
2023-04-30T21:15:07.398Z,13.83
2023-04-30T21:17:36.701Z,13.71
2023-04-30T21:20:05.619Z,13.59
2023-04-30T21:22:37.615Z,13.48
2023-04-30T21:25:06.945Z,13.54
2023-04-30T21:27:35.861Z,13.46
2023-04-30T21:30:05.959Z,13.49
2023-04-30T21:32:34.345Z,13.41
2023-04-30T21:35:02.805Z,13.51
2023-04-30T21:37:31.895Z,13.60
2023-04-30T21:40:01.249Z,13.51
2023-04-30T21:42:30.387Z,13.43
2023-04-30T21:45:00.688Z,13.44
2023-04-30T21:47:31.701Z,13.39
2023-04-30T21:49:59.603Z,13.37
2023-04-30T21:52:28.071Z,13.32
2023-04-30T21:55:00.560Z,13.24
2023-04-30T21:57:30.346Z,13.21
2023-04-30T21:59:59.847Z,13.04
2023-04-30T22:02:29.831Z,13.10
2023-04-30T22:04:59.470Z,13.10
2023-04-30T22:07:28.133Z,13.03
2023-04-30T22:09:59.434Z,12.91
2023-04-30T22:12:31.875Z,12.77
2023-04-30T22:15:03.163Z,12.77
2023-04-30T22:17:35.312Z,12.73
2023-04-30T22:20:05.058Z,12.65
2023-04-30T22:22:40.435Z,12.72
2023-04-30T22:25:10.192Z,12.69
2023-04-30T22:27:39.922Z,12.62
2023-04-30T22:30:09.021Z,12.70
2023-04-30T22:32:39.482Z,12.88
2023-04-30T22:35:10.559Z,12.90
2023-04-30T22:37:41.626Z,12.99
2023-04-30T22:40:10.242Z,12.97
2023-04-30T22:42:41.640Z,13.05
2023-04-30T22:45:10.921Z,13.15
2023-04-30T22:47:38.822Z,13.17
2023-04-30T22:50:08.752Z,13.06
2023-04-30T22:52:39.420Z,13.13
2023-04-30T22:55:10.640Z,13.22
2023-04-30T22:57:41.041Z,13.31
2023-04-30T23:00:14.373Z,13.36
2023-04-30T23:02:43.705Z,13.38
2023-04-30T23:05:15.417Z,13.54
2023-04-30T23:07:48.802Z,13.48
2023-04-30T23:10:17.379Z,13.49
2023-04-30T23:12:47.304Z,13.49
2023-04-30T23:15:15.275Z,13.55
2023-04-30T23:17:45.385Z,13.65
2023-04-30T23:20:13.855Z,13.80
2023-04-30T23:22:41.963Z,13.81
2023-04-30T23:25:11.468Z,13.83
2023-04-30T23:27:40.647Z,13.84
2023-04-30T23:30:11.838Z,13.69
2023-04-30T23:32:39.695Z,13.68
2023-04-30T23:35:10.648Z,13.75
2023-04-30T23:37:40.843Z,13.73
2023-04-30T23:40:12.539Z,13.93
2023-04-30T23:42:41.633Z,13.73
2023-04-30T23:45:11.729Z,13.78
2023-04-30T23:47:40.840Z,13.62
2023-04-30T23:50:10.560Z,13.50
2023-04-30T23:52:43.492Z,13.61
2023-04-30T23:55:12.546Z,13.52
2023-04-30T23:57:42.449Z,13.52
